createdAt,value
2018-08-13T00:02:16.200Z,13.36
2018-08-13T00:04:43.926Z,13.47
2018-08-13T00:07:11.631Z,13.17
2018-08-13T00:09:41.844Z,13.21
2018-08-13T00:12:10.382Z,13.09
2018-08-13T00:14:38.196Z,13.44
2018-08-13T00:17:06.179Z,13.23
2018-08-13T00:19:33.907Z,13.33
2018-08-13T00:22:01.830Z,13.29
2018-08-13T00:24:29.549Z,13.50
2018-08-13T00:26:57.231Z,13.31
2018-08-13T00:29:24.913Z,13.36
2018-08-13T00:31:52.576Z,13.31
2018-08-13T00:34:20.297Z,13.06
2018-08-13T00:36:48.020Z,13.27
2018-08-13T00:39:15.685Z,13.22
2018-08-13T00:41:43.391Z,13.26
2018-08-13T00:44:11.135Z,13.15
2018-08-13T00:46:38.888Z,13.39
2018-08-13T00:49:06.551Z,13.08
2018-08-13T00:51:35.118Z,13.08
2018-08-13T00:54:02.949Z,13.32
2018-08-13T00:56:30.686Z,13.04
2018-08-13T00:58:58.453Z,13.06
2018-08-13T01:01:26.226Z,12.95
2018-08-13T01:03:54.247Z,12.88
2018-08-13T01:06:22.020Z,13.08
2018-08-13T01:08:49.997Z,12.68
2018-08-13T01:11:17.776Z,12.52
2018-08-13T01:13:45.483Z,12.65
2018-08-13T01:16:13.263Z,12.37
2018-08-13T01:18:40.955Z,12.37
2018-08-13T01:21:08.648Z,12.59
2018-08-13T01:23:36.352Z,12.62
2018-08-13T01:26:04.043Z,12.85
2018-08-13T01:28:31.772Z,12.88
2018-08-13T01:30:59.539Z,12.76
2018-08-13T01:33:27.177Z,12.84
2018-08-13T01:35:55.022Z,12.83
2018-08-13T01:38:22.710Z,12.76
2018-08-13T01:40:50.389Z,13.04
2018-08-13T01:43:18.137Z,13.10
2018-08-13T01:45:45.803Z,12.88
2018-08-13T01:48:13.464Z,12.60
2018-08-13T01:50:41.156Z,12.92
2018-08-13T01:53:09.629Z,12.91
2018-08-13T01:55:37.417Z,12.90
2018-08-13T01:58:05.439Z,12.77
2018-08-13T02:00:33.111Z,12.84
2018-08-13T02:03:00.807Z,12.63
2018-08-13T02:05:28.504Z,12.76
2018-08-13T02:07:56.175Z,12.74
2018-08-13T02:10:23.885Z,12.75
2018-08-13T02:12:51.649Z,12.76
2018-08-13T02:15:19.360Z,12.78
2018-08-13T02:17:47.144Z,12.72
2018-08-13T02:20:14.900Z,12.55
2018-08-13T02:22:42.617Z,12.81
2018-08-13T02:25:10.353Z,12.68
2018-08-13T02:27:38.257Z,12.62
2018-08-13T02:30:08.071Z,12.57
2018-08-13T02:32:35.883Z,12.55
2018-08-13T02:35:03.954Z,12.34
2018-08-13T02:37:31.704Z,12.51
2018-08-13T02:39:59.366Z,12.39
2018-08-13T02:42:27.158Z,12.19
2018-08-13T02:44:54.876Z,12.21
2018-08-13T02:47:22.617Z,12.10
2018-08-13T02:49:50.448Z,12.09
2018-08-13T02:52:18.162Z,12.15
2018-08-13T02:54:45.862Z,12.29
2018-08-13T02:57:13.559Z,12.36
2018-08-13T02:59:41.246Z,12.54
2018-08-13T03:02:08.952Z,12.32
2018-08-13T03:04:36.785Z,12.31
2018-08-13T03:07:04.750Z,12.52
2018-08-13T03:09:32.561Z,12.48
2018-08-13T03:12:00.256Z,12.55
2018-08-13T03:14:28.014Z,12.47
2018-08-13T03:16:55.742Z,12.39
2018-08-13T03:19:23.638Z,12.46
2018-08-13T03:21:51.323Z,12.54
2018-08-13T03:24:19.037Z,12.24
2018-08-13T03:26:46.764Z,12.14
2018-08-13T03:29:14.517Z,12.34
2018-08-13T03:31:42.202Z,12.47
2018-08-13T03:34:09.934Z,12.58
2018-08-13T03:36:37.642Z,12.73
2018-08-13T03:39:08.568Z,12.71
2018-08-13T03:41:36.338Z,12.76
2018-08-13T03:44:04.100Z,12.74
2018-08-13T03:46:31.776Z,12.72
2018-08-13T03:48:59.461Z,12.83
2018-08-13T03:51:27.173Z,12.90
2018-08-13T03:53:54.857Z,12.83
2018-08-13T03:56:22.733Z,12.79
2018-08-13T03:58:50.469Z,12.85
2018-08-13T04:01:18.146Z,13.05
2018-08-13T04:03:45.929Z,12.93
2018-08-13T04:06:13.622Z,12.92
2018-08-13T04:08:41.302Z,12.76
2018-08-13T04:11:09.038Z,12.87
2018-08-13T04:13:36.773Z,12.95
2018-08-13T04:16:04.492Z,12.95
2018-08-13T04:18:32.378Z,12.97
2018-08-13T04:21:00.097Z,13.17
2018-08-13T04:23:27.811Z,13.29
2018-08-13T04:25:55.569Z,13.38
2018-08-13T04:28:23.276Z,13.73
2018-08-13T04:30:50.988Z,13.91
2018-08-13T04:33:18.714Z,14.16
2018-08-13T04:35:46.439Z,14.29
2018-08-13T04:38:14.111Z,14.40
2018-08-13T04:40:41.791Z,14.52
2018-08-13T04:43:09.444Z,14.50
2018-08-13T04:45:37.121Z,14.41
2018-08-13T04:48:05.217Z,14.42
2018-08-13T04:50:32.921Z,14.42
2018-08-13T04:53:00.656Z,14.45
2018-08-13T04:55:28.416Z,14.47
2018-08-13T04:57:56.117Z,14.43
2018-08-13T05:00:23.809Z,14.29
2018-08-13T05:02:51.497Z,14.25
2018-08-13T05:05:19.198Z,14.38
2018-08-13T05:07:46.919Z,14.44
2018-08-13T05:10:14.593Z,14.49
2018-08-13T05:12:42.287Z,14.49
2018-08-13T05:15:10.691Z,14.44
2018-08-13T05:17:38.461Z,14.52
2018-08-13T05:20:07.060Z,14.60
2018-08-13T05:22:34.794Z,14.58
2018-08-13T05:25:02.748Z,14.53
2018-08-13T05:27:30.421Z,14.58
2018-08-13T05:29:58.163Z,14.64
2018-08-13T05:32:25.866Z,14.52
2018-08-13T05:34:53.514Z,14.68
2018-08-13T05:37:21.205Z,14.72
2018-08-13T05:39:48.904Z,14.69
2018-08-13T05:42:16.586Z,14.61
2018-08-13T05:44:44.222Z,14.50
2018-08-13T05:47:12.025Z,14.49
2018-08-13T05:49:39.701Z,14.44
2018-08-13T05:52:07.432Z,14.57
2018-08-13T05:54:35.165Z,14.59
2018-08-13T05:57:02.902Z,14.57
2018-08-13T05:59:30.561Z,14.73
2018-08-13T06:01:58.293Z,14.72
2018-08-13T06:04:26.004Z,14.84
2018-08-13T06:06:53.688Z,14.85
2018-08-13T06:09:21.448Z,14.74
2018-08-13T06:11:49.130Z,14.76
2018-08-13T06:14:16.884Z,14.93
2018-08-13T06:16:44.714Z,14.90
2018-08-13T06:19:12.398Z,14.95
2018-08-13T06:21:40.062Z,15.16
2018-08-13T06:24:07.826Z,14.18
2018-08-13T06:26:35.520Z,14.74
2018-08-13T06:29:04.010Z,14.80
2018-08-13T06:31:31.771Z,14.80
2018-08-13T06:33:59.626Z,14.73
2018-08-13T06:36:27.289Z,14.91
2018-08-13T06:38:55.045Z,14.99
2018-08-13T06:41:22.785Z,15.21
2018-08-13T06:43:50.525Z,15.20
2018-08-13T06:46:18.262Z,15.21
2018-08-13T06:48:46.021Z,15.27
2018-08-13T06:51:13.788Z,15.37
2018-08-13T06:53:41.544Z,15.36
2018-08-13T06:56:09.948Z,15.43
2018-08-13T06:58:37.664Z,15.40
2018-08-13T07:01:05.706Z,15.46
2018-08-13T07:03:33.518Z,15.41
2018-08-13T07:06:01.351Z,15.38
2018-08-13T07:08:29.125Z,15.35
2018-08-13T07:10:56.890Z,15.34
2018-08-13T07:13:24.631Z,15.43
2018-08-13T07:15:52.402Z,15.44
2018-08-13T07:18:20.117Z,15.54
2018-08-13T07:20:47.852Z,15.62
2018-08-13T07:23:15.682Z,15.53
2018-08-13T07:25:43.453Z,15.61
2018-08-13T07:28:11.207Z,15.55
2018-08-13T07:30:39.049Z,15.69
2018-08-13T07:33:06.806Z,15.63
2018-08-13T07:35:34.550Z,15.65
2018-08-13T07:38:02.357Z,15.67
2018-08-13T07:40:30.153Z,15.62
2018-08-13T07:42:57.820Z,15.66
2018-08-13T07:45:25.566Z,15.77
2018-08-13T07:47:53.301Z,15.76
2018-08-13T07:50:21.006Z,15.75
2018-08-13T07:52:48.831Z,15.76
2018-08-13T07:55:16.572Z,15.70
2018-08-13T07:57:44.237Z,15.75
2018-08-13T08:00:14.618Z,15.70
2018-08-13T08:02:42.471Z,15.72
2018-08-13T08:05:10.196Z,15.70
2018-08-13T08:07:37.957Z,15.78
2018-08-13T08:10:08.033Z,15.71
2018-08-13T08:12:35.797Z,15.68
2018-08-13T08:15:04.882Z,15.73
2018-08-13T08:17:32.615Z,15.79
2018-08-13T08:20:00.280Z,15.96
2018-08-13T08:22:28.171Z,15.92
2018-08-13T08:24:55.869Z,15.93
2018-08-13T08:27:23.597Z,16.07
2018-08-13T08:29:51.377Z,16.19
2018-08-13T08:32:19.156Z,16.10
2018-08-13T08:34:46.959Z,16.16
2018-08-13T08:37:14.692Z,16.25
2018-08-13T08:39:42.363Z,16.40
2018-08-13T08:42:10.114Z,16.44
2018-08-13T08:44:37.910Z,16.39
2018-08-13T08:47:05.760Z,16.45
2018-08-13T08:49:33.508Z,16.44
2018-08-13T08:52:01.270Z,16.36
2018-08-13T08:54:28.987Z,16.40
2018-08-13T08:56:56.686Z,16.28
2018-08-13T08:59:24.417Z,16.26
2018-08-13T09:01:52.182Z,16.17
2018-08-13T09:04:19.925Z,16.33
2018-08-13T09:06:47.678Z,16.30
2018-08-13T09:09:15.398Z,16.47
2018-08-13T09:11:43.226Z,16.64
2018-08-13T09:14:11.156Z,16.66
2018-08-13T09:16:39.847Z,16.55
2018-08-13T09:19:18.658Z,16.57
2018-08-13T09:21:50.418Z,16.66
2018-08-13T09:24:29.213Z,16.59
2018-08-13T09:27:08.062Z,16.58
2018-08-13T09:29:46.971Z,16.67
2018-08-13T09:32:28.264Z,16.72
2018-08-13T09:35:00.406Z,16.71
2018-08-13T09:37:28.170Z,16.72
2018-08-13T09:39:56.103Z,16.69
2018-08-13T09:42:24.272Z,16.73
2018-08-13T09:44:52.309Z,16.61
2018-08-13T09:47:19.990Z,16.42
2018-08-13T09:49:47.928Z,16.46
2018-08-13T09:52:15.610Z,16.67
2018-08-13T09:54:43.379Z,16.76
2018-08-13T09:57:11.229Z,16.78
2018-08-13T09:59:38.904Z,16.69
2018-08-13T10:02:06.625Z,16.11
2018-08-13T10:04:34.466Z,16.89
2018-08-13T10:07:02.313Z,17.09
2018-08-13T10:09:29.978Z,17.19
2018-08-13T10:11:57.851Z,17.35
2018-08-13T10:14:25.638Z,17.31
2018-08-13T10:16:53.453Z,17.31
2018-08-13T10:19:21.071Z,17.38
2018-08-13T10:21:48.801Z,17.45
2018-08-13T10:24:16.453Z,17.40
2018-08-13T10:26:44.217Z,17.31
2018-08-13T10:29:11.893Z,17.12
2018-08-13T10:31:39.565Z,17.25
2018-08-13T10:34:07.248Z,17.43
2018-08-13T10:36:34.941Z,17.59
2018-08-13T10:39:03.809Z,17.63
2018-08-13T10:41:31.547Z,17.46
2018-08-13T10:43:59.202Z,17.49
2018-08-13T10:46:26.918Z,17.63
2018-08-13T10:48:54.629Z,17.50
2018-08-13T10:51:22.334Z,17.54
2018-08-13T10:53:50.041Z,17.70
2018-08-13T10:56:17.762Z,17.79
2018-08-13T10:58:45.525Z,18.03
2018-08-13T11:01:13.568Z,17.84
2018-08-13T11:03:41.314Z,17.79
2018-08-13T11:06:08.993Z,17.79
2018-08-13T11:08:36.722Z,17.92
2018-08-13T11:11:04.511Z,17.89
2018-08-13T11:13:32.217Z,17.83
2018-08-13T11:16:00.038Z,17.87
2018-08-13T11:18:27.729Z,17.94
2018-08-13T11:20:55.404Z,18.02
2018-08-13T11:23:23.107Z,17.90
2018-08-13T11:25:50.813Z,17.96
2018-08-13T11:28:18.515Z,18.05
2018-08-13T11:30:46.252Z,18.12
2018-08-13T11:33:13.954Z,17.83
2018-08-13T11:35:41.677Z,17.87
2018-08-13T11:38:09.343Z,17.87
2018-08-13T11:40:37.079Z,17.83
2018-08-13T11:43:04.821Z,18.00
2018-08-13T11:45:32.540Z,17.95
2018-08-13T11:48:00.251Z,18.07
2018-08-13T11:50:27.930Z,18.10
2018-08-13T11:52:55.602Z,18.16
2018-08-13T11:55:23.318Z,18.21
2018-08-13T11:57:51.034Z,18.25
2018-08-13T12:00:18.945Z,18.29
2018-08-13T12:02:46.655Z,18.31
2018-08-13T12:05:15.312Z,18.38
2018-08-13T12:07:43.517Z,18.48
2018-08-13T12:10:11.982Z,18.43
2018-08-13T12:12:40.707Z,18.38
2018-08-13T12:15:09.359Z,18.32
2018-08-13T12:17:37.090Z,18.37
2018-08-13T12:20:07.166Z,18.35
2018-08-13T12:22:34.853Z,18.34
2018-08-13T12:25:02.581Z,18.24
2018-08-13T12:27:30.336Z,18.25
2018-08-13T12:29:58.002Z,18.05
2018-08-13T12:32:25.872Z,17.82
2018-08-13T12:34:53.551Z,17.79
2018-08-13T12:37:21.201Z,17.87
2018-08-13T12:39:48.912Z,17.83
2018-08-13T12:42:16.572Z,17.93
2018-08-13T12:44:44.239Z,18.18
2018-08-13T12:47:11.973Z,18.28
2018-08-13T12:49:39.667Z,18.47
2018-08-13T12:52:07.471Z,18.49
2018-08-13T12:54:35.173Z,18.39
2018-08-13T12:57:02.902Z,18.21
2018-08-13T12:59:30.614Z,18.08
2018-08-13T13:01:58.318Z,18.07
2018-08-13T13:04:26.006Z,18.30
2018-08-13T13:06:53.672Z,18.37
2018-08-13T13:09:21.747Z,18.36
2018-08-13T13:11:49.561Z,18.42
2018-08-13T13:14:17.321Z,18.32
2018-08-13T13:16:45.034Z,18.49
2018-08-13T13:19:12.753Z,18.53
2018-08-13T13:21:40.474Z,18.59
2018-08-13T13:24:08.300Z,18.64
2018-08-13T13:26:36.098Z,18.67
2018-08-13T13:29:04.293Z,18.55
2018-08-13T13:31:31.991Z,18.52
2018-08-13T13:33:59.711Z,18.65
2018-08-13T13:36:27.385Z,18.63
2018-08-13T13:38:55.101Z,18.68
2018-08-13T13:41:22.785Z,18.71
2018-08-13T13:43:50.526Z,18.60
2018-08-13T13:46:18.310Z,18.58
2018-08-13T13:48:50.493Z,18.62
2018-08-13T13:51:18.385Z,18.42
2018-08-13T13:53:46.127Z,18.45
2018-08-13T13:56:13.832Z,18.50
2018-08-13T13:58:41.563Z,18.61
2018-08-13T14:01:09.326Z,18.68
2018-08-13T14:03:37.070Z,18.49
2018-08-13T14:06:04.897Z,18.39
2018-08-13T14:08:32.625Z,18.28
2018-08-13T14:11:00.451Z,18.37
2018-08-13T14:13:28.125Z,18.57
2018-08-13T14:15:55.881Z,18.69
2018-08-13T14:18:23.577Z,18.81
2018-08-13T14:20:51.344Z,18.73
2018-08-13T14:23:19.237Z,18.70
2018-08-13T14:25:46.919Z,18.78
2018-08-13T14:28:14.655Z,18.89
2018-08-13T14:30:42.422Z,18.87
2018-08-13T14:33:10.140Z,18.77
2018-08-13T14:35:37.911Z,18.87
2018-08-13T14:38:05.759Z,18.95
2018-08-13T14:40:33.487Z,19.03
2018-08-13T14:43:01.167Z,19.13
2018-08-13T14:45:29.072Z,19.07
2018-08-13T14:47:56.761Z,19.05
2018-08-13T14:50:24.474Z,18.83
2018-08-13T14:52:52.163Z,18.84
2018-08-13T14:55:21.010Z,18.97
2018-08-13T14:57:48.760Z,18.95
2018-08-13T15:00:21.265Z,18.89
2018-08-13T15:02:49.423Z,19.09
2018-08-13T15:05:17.477Z,19.14
2018-08-13T15:07:45.241Z,19.10
2018-08-13T15:10:14.915Z,19.11
2018-08-13T15:12:43.153Z,19.14
2018-08-13T15:15:12.022Z,19.18
2018-08-13T15:17:40.455Z,19.20
2018-08-13T15:20:11.594Z,19.34
2018-08-13T15:22:39.337Z,19.38
2018-08-13T15:25:07.017Z,19.38
2018-08-13T15:27:35.381Z,19.20
2018-08-13T15:30:03.478Z,19.10
2018-08-13T15:32:31.174Z,18.81
2018-08-13T15:34:58.909Z,18.70
2018-08-13T15:37:26.600Z,18.68
2018-08-13T15:39:54.255Z,18.64
2018-08-13T15:42:22.022Z,18.67
2018-08-13T15:44:49.765Z,18.58
2018-08-13T15:47:17.487Z,18.60
2018-08-13T15:49:45.252Z,18.54
2018-08-13T15:52:12.956Z,18.56
2018-08-13T15:54:40.655Z,18.50
2018-08-13T15:57:08.345Z,18.37
2018-08-13T15:59:36.112Z,18.45
2018-08-13T16:02:03.898Z,18.40
2018-08-13T16:04:31.577Z,18.44
2018-08-13T16:06:59.430Z,18.44
2018-08-13T16:09:27.214Z,18.53
2018-08-13T16:11:54.906Z,18.71
2018-08-13T16:14:23.082Z,18.64
2018-08-13T16:16:50.830Z,18.68
2018-08-13T16:19:18.554Z,18.76
2018-08-13T16:21:46.233Z,18.74
2018-08-13T16:24:13.978Z,18.58
2018-08-13T16:26:41.726Z,18.43
2018-08-13T16:29:09.510Z,18.30
2018-08-13T16:31:37.237Z,18.32
2018-08-13T16:34:05.027Z,18.26
2018-08-13T16:36:32.729Z,18.27
2018-08-13T16:39:00.418Z,18.27
2018-08-13T16:41:28.105Z,18.04
2018-08-13T16:43:55.828Z,17.99
2018-08-13T16:46:23.521Z,17.90
2018-08-13T16:48:51.215Z,17.89
2018-08-13T16:51:18.945Z,18.02
2018-08-13T16:53:46.704Z,18.03
2018-08-13T16:56:14.550Z,17.95
2018-08-13T16:58:42.294Z,17.88
2018-08-13T17:01:10.123Z,18.06
2018-08-13T17:03:37.822Z,18.03
2018-08-13T17:06:05.769Z,18.03
2018-08-13T17:08:33.603Z,17.92
2018-08-13T17:11:01.415Z,17.94
2018-08-13T17:13:29.329Z,17.95
2018-08-13T17:15:57.051Z,17.84
2018-08-13T17:18:24.809Z,17.71
2018-08-13T17:20:52.555Z,17.82
2018-08-13T17:23:20.388Z,17.77
2018-08-13T17:25:48.176Z,17.86
2018-08-13T17:28:15.966Z,17.89
2018-08-13T17:30:43.693Z,17.39
2018-08-13T17:33:11.509Z,17.71
2018-08-13T17:35:39.337Z,17.75
2018-08-13T17:38:08.681Z,17.76
2018-08-13T17:40:36.447Z,17.71
2018-08-13T17:43:05.071Z,17.59
2018-08-13T17:45:32.731Z,16.98
2018-08-13T17:48:00.425Z,17.41
2018-08-13T17:50:28.282Z,17.47
2018-08-13T17:52:56.217Z,17.67
2018-08-13T17:55:30.614Z,17.76
2018-08-13T17:57:58.385Z,17.76
2018-08-13T18:00:26.831Z,17.69
2018-08-13T18:02:54.601Z,17.77
2018-08-13T18:05:23.973Z,17.70
2018-08-13T18:07:52.285Z,17.61
2018-08-13T18:10:28.455Z,17.66
2018-08-13T18:12:56.917Z,17.59
2018-08-13T18:15:24.634Z,17.58
2018-08-13T18:17:52.517Z,17.57
2018-08-13T18:20:20.318Z,17.45
2018-08-13T18:22:48.088Z,17.34
2018-08-13T18:25:16.285Z,17.41
2018-08-13T18:27:45.462Z,17.40
2018-08-13T18:30:15.636Z,17.38
2018-08-13T18:32:43.409Z,17.32
2018-08-13T18:35:11.664Z,17.23
2018-08-13T18:37:39.475Z,17.27
2018-08-13T18:40:13.043Z,17.31
2018-08-13T18:42:40.741Z,17.16
2018-08-13T18:45:09.384Z,17.17
2018-08-13T18:47:37.300Z,17.07
2018-08-13T18:50:06.831Z,17.13
2018-08-13T18:52:34.516Z,17.13
2018-08-13T18:55:02.366Z,17.22
2018-08-13T18:57:30.145Z,17.20
2018-08-13T18:59:57.912Z,17.13
2018-08-13T19:02:25.683Z,16.93
2018-08-13T19:04:53.455Z,16.96
2018-08-13T19:07:21.168Z,16.97
2018-08-13T19:09:49.144Z,17.08
2018-08-13T19:12:16.859Z,17.17
2018-08-13T19:14:44.661Z,17.20
2018-08-13T19:17:12.408Z,17.09
2018-08-13T19:19:40.106Z,16.98
2018-08-13T19:22:07.864Z,16.89
2018-08-13T19:24:35.713Z,16.91
2018-08-13T19:27:03.571Z,16.86
2018-08-13T19:29:31.352Z,17.00
2018-08-13T19:31:59.175Z,16.63
2018-08-13T19:34:26.909Z,16.66
2018-08-13T19:36:54.727Z,16.75
2018-08-13T19:39:22.628Z,16.50
2018-08-13T19:41:50.452Z,16.61
2018-08-13T19:44:18.201Z,16.42
2018-08-13T19:46:46.102Z,16.61
2018-08-13T19:49:13.958Z,16.54
2018-08-13T19:51:41.677Z,16.60
2018-08-13T19:54:09.371Z,16.48
2018-08-13T19:56:37.330Z,16.61
2018-08-13T19:59:05.086Z,16.49
2018-08-13T20:01:32.850Z,16.52
2018-08-13T20:04:00.684Z,16.40
2018-08-13T20:06:28.467Z,16.44
2018-08-13T20:08:56.297Z,16.42
2018-08-13T20:11:24.074Z,16.24
2018-08-13T20:13:59.693Z,16.14
2018-08-13T20:16:27.381Z,16.13
2018-08-13T20:18:55.061Z,16.12
2018-08-13T20:21:22.778Z,16.17
2018-08-13T20:23:50.463Z,16.12
2018-08-13T20:26:19.100Z,16.09
2018-08-13T20:28:46.828Z,15.83
2018-08-13T20:31:14.544Z,16.01
2018-08-13T20:33:42.233Z,16.07
2018-08-13T20:36:09.966Z,15.97
2018-08-13T20:38:37.746Z,16.05
2018-08-13T20:41:05.441Z,15.93
2018-08-13T20:43:33.329Z,15.92
2018-08-13T20:46:01.009Z,15.64
2018-08-13T20:48:28.674Z,15.64
2018-08-13T20:50:56.453Z,15.69
2018-08-13T20:53:24.149Z,15.67
2018-08-13T20:55:51.821Z,15.65
2018-08-13T20:58:19.595Z,15.45
2018-08-13T21:00:47.446Z,15.60
2018-08-13T21:03:15.196Z,15.60
2018-08-13T21:05:43.006Z,15.32
2018-08-13T21:08:10.695Z,15.49
2018-08-13T21:10:38.405Z,15.48
2018-08-13T21:13:06.420Z,15.30
2018-08-13T21:15:34.125Z,15.35
2018-08-13T21:18:01.823Z,15.40
2018-08-13T21:20:29.625Z,15.23
2018-08-13T21:22:57.427Z,15.11
2018-08-13T21:25:25.248Z,15.22
2018-08-13T21:27:53.112Z,15.10
2018-08-13T21:30:20.872Z,15.30
2018-08-13T21:32:48.678Z,15.23
2018-08-13T21:35:19.101Z,14.96
2018-08-13T21:37:47.113Z,15.11
2018-08-13T21:40:14.853Z,15.19
2018-08-13T21:42:42.863Z,14.85
2018-08-13T21:45:11.150Z,15.00
2018-08-13T21:47:39.238Z,14.72
2018-08-13T21:50:18.937Z,14.84
2018-08-13T21:52:47.234Z,14.99
2018-08-13T21:55:14.987Z,14.72
2018-08-13T21:57:42.665Z,14.87
2018-08-13T22:00:35.295Z,14.98
2018-08-13T22:03:03.264Z,14.78
2018-08-13T22:05:31.153Z,14.90
2018-08-13T22:07:59.042Z,14.69
2018-08-13T22:10:26.821Z,14.79
2018-08-13T22:12:54.591Z,14.53
2018-08-13T22:15:29.566Z,14.73
2018-08-13T22:17:58.819Z,14.60
2018-08-13T22:20:26.957Z,14.56
2018-08-13T22:22:55.850Z,14.60
2018-08-13T22:25:26.257Z,14.36
2018-08-13T22:27:53.984Z,14.38
2018-08-13T22:30:21.790Z,14.06
2018-08-13T22:32:49.522Z,14.22
2018-08-13T22:35:17.316Z,14.47
2018-08-13T22:37:45.036Z,14.30
2018-08-13T22:40:15.376Z,14.20
2018-08-13T22:42:44.090Z,14.30
2018-08-13T22:45:12.014Z,14.10
2018-08-13T22:47:40.346Z,14.17
2018-08-13T22:50:09.631Z,13.80
2018-08-13T22:52:37.338Z,14.18
2018-08-13T22:55:06.698Z,13.93
2018-08-13T22:57:34.344Z,13.73
2018-08-13T23:00:02.192Z,13.57
2018-08-13T23:02:29.912Z,13.92
2018-08-13T23:04:57.652Z,13.88
2018-08-13T23:07:25.590Z,13.84
2018-08-13T23:09:53.307Z,13.75
2018-08-13T23:12:21.058Z,13.78
2018-08-13T23:14:48.884Z,13.69
2018-08-13T23:17:16.554Z,13.68
2018-08-13T23:19:44.271Z,13.31
2018-08-13T23:22:22.033Z,13.15
2018-08-13T23:24:49.706Z,13.35
2018-08-13T23:27:17.389Z,13.19
2018-08-13T23:29:45.092Z,13.18
2018-08-13T23:32:12.762Z,13.29
2018-08-13T23:34:40.476Z,12.96
2018-08-13T23:37:08.193Z,13.02
2018-08-13T23:39:35.836Z,12.75
2018-08-13T23:42:03.566Z,12.93
2018-08-13T23:44:31.278Z,13.08
2018-08-13T23:46:58.934Z,13.17
2018-08-13T23:49:26.612Z,13.04
2018-08-13T23:51:54.302Z,13.02
2018-08-13T23:54:22.025Z,12.93
2018-08-13T23:56:49.693Z,12.54
2018-08-13T23:59:17.497Z,12.05
